PCLO2: Pine Creek Lake

Data processed at Fri Mar 09 2018 23:20


All information presented herein is the property of the government of the United States of America and may be revised or deleted at any time without prior notice.
Dissemination of this information without the expressed written consent of the Public Affairs Office, Tulsa District U.S. Army Corps of Engineers is strictly prohibited.
These data are gathered electronically and, as presented, have not undergone any form of quality control. These data are not guaranteed to be valid or correct.
Go to home page.
Go to station list.

Upstream stations:

Downstream station:
Previous Day
Next Day
Current Day
    
SHEF ID:       PCLO2     Pine Creek Lake
STATION TYPE:  RESERVOIR
Normal Pool:  Bottom =   414.00, Top =   433.00

               PRECIP  STAGE(2) ELEVATION   STORAGE   TW-ELEV    INFLOW   RELEASE  AIR-TEMP  WIND-DIRWIND-SPEED REL-HUMID SOLAR-RAD   VOLTAGE  BAT-LOAD
                   in        ft        ft     ac-ft        ft       cfs       cfs         F       deg       mph         %      W/m2      volt      volt
              Ccp-Rev   Ccp-Rev   Ccp-Rev   Ccp-Rev   Ccp-Rev  Regi-Rev  Regi-Rev   Ccp-Rev   Ccp-Rev   Ccp-Rev   Ccp-Rev   Ccp-Rev   Ccp-Rev   Ccp-Rev
(US/Central)
03/07 00:00      0.00    475.99    475.83    390785      2.55     10567      7511     45.91    353.50     20.60     38.64      0.00     12.81     12.52
03/07 01:00      0.00    475.91    475.78    390030      2.60       206      7509     43.66    358.00     19.30     43.07      0.00     12.78     12.50
03/07 02:00      0.00    475.90    475.75    389577      2.68       204      7508     42.12    356.40     19.40     45.04      0.00     12.75     12.47
03/07 03:00      0.00    475.84    475.70    388823      2.58       203      7506     40.80    353.50     15.40     48.39      0.00     12.73     12.46
03/07 04:00      0.00    475.84    475.67    388370      2.59       567      7505     39.34    355.50     15.20     52.00      0.00     12.69     12.42
03/07 05:00      0.00    475.81    475.62    387616      2.65       565      7504     37.90    343.60     10.50     54.48      0.00     12.66     12.37
03/07 06:00      0.00    475.77    475.59    387163      2.52       564      7502     37.08    348.20     10.60     57.53      0.00     12.65     12.36
03/07 07:00      0.00    475.72    475.55    386559      2.80       684      7501     35.91    324.20      5.80     63.52      0.00     12.66     12.34
03/07 08:00      0.00    475.68    475.52    386107      2.60       805      7501     36.10    334.80      7.00     62.02     89.70     12.70     12.36
03/07 09:00      0.00    475.64    475.47    385352      2.65       560      7499     37.29    344.40     11.10     57.48    318.50     12.86     12.39
03/07 10:00      0.00    475.60    475.45    385050      2.56       924      7497     38.77    345.90      9.30     55.57    536.30     14.13     12.86
03/07 11:00      0.00    475.57    475.40    384296      2.55       923      7496     40.86    341.10      7.40     52.29    679.50     13.68     13.42
03/07 12:00      0.00    475.53    475.37    383843      2.57       800      7495     43.68    345.50      8.60     48.11    681.60     14.12     13.36
03/07 13:00      0.00    475.52    475.33    383240      2.56       677      7493     45.73    325.40      8.20     43.11    883.10     13.56     13.49
03/07 14:00      0.00    475.46    475.29    382636      2.56       554      7492     48.34    326.90      8.80     37.69    880.10     13.70     13.51
03/07 15:00      0.00    475.40    475.25    382032      2.80       552      7491     50.61    311.40      7.40     34.61    790.30     13.52     13.37
03/07 16:00      0.00    475.37    475.21    381429      2.55       551      7489     52.16    326.80      8.30     32.11    637.90     13.62     13.31
03/07 17:00      0.00    475.37    475.18    380976      2.58      1641      7488     53.01    327.60      8.00     31.06    426.80     13.99     13.23
03/07 18:00      0.00    475.34    475.14    380373      2.64      2367      7487     52.90    322.90      6.90     32.40    178.90     13.08     13.22
03/07 19:00      0.00    475.35    475.10    379769      2.59         0      7470     50.81    329.90      5.20     39.31      0.60     12.92     12.72
03/07 20:00      0.00    475.30    475.06    379165      2.71     33609      7453     48.69    339.30      6.40     44.19      0.00     12.89     12.61
03/07 21:00      0.00    475.25    475.02    378562      2.55     33613      7452     47.17    355.50      5.50     54.54      0.00     12.87     12.57
03/07 22:00      0.00    475.22    474.98    377960      2.71     33619      7466     44.85      7.10      4.10     72.24      0.00     12.83     12.55
03/07 23:00      0.00    475.20    474.95    377509      2.56     32535      7480     39.36    155.20      1.20     95.44      0.00     12.83     12.54